Time;durP1;ratioP1;P1;durP2;ratioP2;P2;SDS_P1;SDS_P2;PMS_P1;PMS_P2;Temp;Humidity;BMP_temperature;BMP_pressure;BME280_temperature;BME280_humidity;BME280_pressure;Samples;Min_cycle;Max_cycle;Signal;HPM_P1;HPM_P2
2022/05/30 00:01:06;;;;;;;4.13;3.70;;;16.50;99.90;;;16.71;75.82;94312.47;5029433;28;20860;-54
2022/05/30 00:03:33;;;;;;;4.67;4.30;;;16.40;99.90;;;16.71;76.32;94303.69;5034100;28;21000;-51
2022/05/30 00:06:00;;;;;;;3.80;3.20;;;16.40;99.90;;;16.70;76.36;94312.66;5027145;28;20481;-51
2022/05/30 00:08:29;;;;;;;6.10;3.83;;;16.40;99.90;;;16.68;75.89;94310.19;5040087;28;20452;-51
2022/05/30 00:10:56;;;;;;;7.00;4.00;;;16.40;99.90;;;16.66;76.21;94310.38;5034571;28;20472;-55
2022/05/30 00:13:23;;;;;;;5.67;3.70;;;16.40;99.90;;;16.65;76.14;94310.56;5039683;28;20485;-53
2022/05/30 00:15:51;;;;;;;4.03;2.97;;;16.40;99.90;;;16.65;76.01;94307.91;5034412;28;20495;-55
2022/05/30 00:18:18;;;;;;;9.03;4.17;;;16.30;99.90;;;16.63;76.03;94309.94;5040236;28;20495;-51
2022/05/30 00:20:47;;;;;;;5.03;4.10;;;16.40;99.90;;;16.61;75.92;94309.34;5036245;28;20476;-53
2022/05/30 00:23:14;;;;;;;3.57;3.30;;;16.30;99.90;;;16.59;76.17;94306.88;5034270;28;20551;-54
2022/05/30 00:25:43;;;;;;;3.80;3.50;;;16.30;99.90;;;16.59;76.07;94314.00;5037630;28;20486;-53
2022/05/30 00:28:10;;;;;;;4.30;3.60;;;16.30;99.90;;;16.55;76.21;94307.44;5035111;28;20883;-51
2022/05/30 00:30:38;;;;;;;3.67;3.30;;;16.30;99.90;;;16.55;76.30;94302.13;5035502;28;20533;-52
2022/05/30 00:33:05;;;;;;;6.13;3.30;;;16.30;99.90;;;16.54;76.30;94308.44;5035474;28;21067;-53
2022/05/30 00:35:32;;;;;;;3.67;3.33;;;16.30;99.90;;;16.53;76.58;94309.44;5033841;28;20480;-53
2022/05/30 00:38:00;;;;;;;8.70;3.00;;;16.20;99.90;;;16.51;76.20;94308.81;5038060;28;20836;-52
2022/05/30 00:40:27;;;;;;;5.97;3.30;;;16.20;99.90;;;16.46;75.97;94299.59;5037642;28;20570;-52
2022/05/30 00:42:56;;;;;;;13.60;3.27;;;16.20;99.90;;;16.45;76.24;94307.75;5033876;28;20580;-51
2022/05/30 00:45:23;;;;;;;4.30;3.27;;;16.20;99.90;;;16.43;76.13;94301.81;5038473;28;20468;-53
2022/05/30 00:47:51;;;;;;;6.00;3.53;;;16.20;99.90;;;16.42;76.12;94310.78;5036853;28;20984;-52
2022/05/30 00:50:19;;;;;;;4.70;3.23;;;16.20;99.90;;;16.40;75.91;94308.31;5036261;28;20590;-51
2022/05/30 00:52:46;;;;;;;7.40;2.60;;;16.10;99.90;;;16.39;75.57;94309.34;5037131;28;20525;-55
2022/05/30 00:55:15;;;;;;;4.50;3.20;;;16.10;99.90;;;16.34;75.44;94309.06;5039706;28;20740;-54
2022/05/30 00:57:43;;;;;;;3.00;2.80;;;16.10;99.90;;;16.32;75.52;94308.44;5033637;28;20577;-52
2022/05/30 01:00:16;;;;;;;4.10;3.10;;;16.10;99.90;;;16.29;75.27;94314.13;5036659;28;20507;-52
2022/05/30 01:02:44;;;;;;;4.50;3.10;;;16.00;99.90;;;16.29;75.47;94319.44;5033662;28;20459;-52
2022/05/30 01:07:59;;;;;;;4.33;3.10;;;16.00;99.90;;;16.27;75.55;94330.25;5035385;28;20450;-53
2022/05/30 01:10:27;;;;;;;4.10;3.80;;;16.00;99.90;;;16.27;75.27;94326.78;5035344;28;20484;-52
2022/05/30 01:12:55;;;;;;;3.97;3.60;;;16.00;99.90;;;16.26;75.16;94333.06;5038051;28;20463;-53
2022/05/30 01:15:26;;;;;;;7.83;5.57;;;16.00;99.90;;;16.24;75.06;94330.63;5034337;28;20974;-54
2022/05/30 01:17:59;;;;;;;21.03;4.63;;;16.00;99.90;;;16.21;74.85;94330.19;5036081;28;20570;-52
2022/05/30 01:20:37;;;;;;;6.97;4.80;;;15.90;99.90;;;16.17;75.02;94328.91;5036083;28;20549;-52
2022/05/30 01:23:34;;;;;;;4.90;4.20;;;15.90;99.90;;;16.16;74.83;94337.84;5035460;28;20456;-51
2022/05/30 01:26:31;;;;;;;5.33;4.00;;;15.90;99.90;;;16.08;74.61;94323.72;5034981;28;20477;-54
2022/05/30 01:29:01;;;;;;;4.60;3.83;;;15.90;99.90;;;16.06;74.52;94333.66;5030721;28;20478;-53
2022/05/30 01:31:29;;;;;;;9.23;4.70;;;15.80;99.90;;;16.04;74.73;94329.59;5035185;28;20451;-51
2022/05/30 01:33:56;;;;;;;8.20;4.20;;;15.80;99.90;;;16.01;74.49;94336.06;5031190;28;20460;-52
2022/05/30 01:36:24;;;;;;;4.37;3.97;;;15.80;99.90;;;15.99;74.75;94329.31;5033488;28;20461;-53
2022/05/30 01:38:51;;;;;;;6.57;3.80;;;15.70;99.90;;;15.97;74.56;94328.66;5036202;28;20528;-55
2022/05/30 01:41:19;;;;;;;5.07;4.57;;;15.70;99.90;;;15.95;74.89;94342.13;5034077;28;20481;-52
2022/05/30 01:43:46;;;;;;;5.63;4.50;;;15.70;99.90;;;15.93;74.67;94336.19;5034551;28;20464;-54
2022/05/30 01:46:21;;;;;;;5.17;4.20;;;15.70;99.90;;;15.91;74.74;94335.53;5035964;28;21034;-52
2022/05/30 01:48:48;;;;;;;7.10;5.17;;;15.70;99.90;;;15.89;74.92;94326.94;5038818;28;20451;-53
2022/05/30 01:51:16;;;;;;;6.03;4.80;;;15.60;99.90;;;15.88;74.84;94322.66;5037538;28;20475;-53
2022/05/30 01:53:43;;;;;;;9.63;4.87;;;15.60;99.90;;;15.87;74.88;94328.97;5042593;28;20892;-52
2022/05/30 01:56:10;;;;;;;7.93;5.43;;;15.60;99.90;;;15.87;74.85;94331.63;5036074;28;20566;-52
2022/05/30 01:58:37;;;;;;;8.30;4.90;;;15.70;99.90;;;15.86;74.79;94330.78;5038569;28;20487;-52
2022/05/30 02:01:05;;;;;;;12.43;5.67;;;15.60;99.90;;;15.87;74.75;94328.97;5036108;28;20472;-54
2022/05/30 02:03:35;;;;;;;9.10;5.80;;;15.60;99.90;;;15.86;74.93;94329.97;5041539;28;20460;-55
2022/05/30 02:06:02;;;;;;;14.27;5.07;;;15.60;99.90;;;15.86;74.73;94332.63;5037447;28;20480;-52
2022/05/30 02:08:29;;;;;;;7.27;5.10;;;15.60;99.90;;;15.84;74.89;94337.31;5039258;28;21082;-53
2022/05/30 02:10:57;;;;;;;5.43;4.93;;;15.60;99.90;;;15.81;74.83;94335.84;5037928;28;20475;-52
2022/05/30 02:13:24;;;;;;;8.70;5.00;;;15.60;99.90;;;15.80;74.90;94341.31;5038145;28;20699;-52
2022/05/30 02:18:37;;;;;;;9.80;6.13;;;15.50;99.90;;;15.75;74.70;94358.59;5038919;28;20532;-54
2022/05/30 02:21:05;;;;;;;9.43;6.23;;;15.50;99.90;;;15.71;74.79;94357.31;5033748;28;20480;-53
2022/05/30 02:23:32;;;;;;;13.67;5.20;;;15.50;99.90;;;15.70;74.81;94352.19;5036422;28;20538;-52
2022/05/30 02:25:59;;;;;;;8.07;4.90;;;15.50;99.90;;;15.68;75.04;94348.91;5041085;28;21147;-55
2022/05/30 02:28:27;;;;;;;7.23;4.90;;;15.50;99.90;;;15.67;74.98;94349.91;5038407;28;20627;-52
2022/05/30 02:30:54;;;;;;;8.67;4.77;;;15.50;99.90;;;15.67;75.06;94350.72;5037963;28;20468;-55
2022/05/30 02:38:52;;;;;;;4.87;4.37;;;15.40;99.90;;;15.61;74.83;94356.75;5036953;28;20621;-53
2022/05/30 02:41:20;;;;;;;10.80;4.97;;;15.40;99.90;;;15.60;74.79;94349.81;5039695;28;20557;-55
2022/05/30 02:43:47;;;;;;;6.03;4.43;;;15.40;99.90;;;15.59;74.93;94358.78;5040171;28;20468;-53
2022/05/30 02:46:15;;;;;;;7.67;4.83;;;15.40;99.90;;;15.58;75.19;94368.56;5041020;28;20511;-52
2022/05/30 02:48:42;;;;;;;5.60;4.23;;;15.40;99.90;;;15.60;74.97;94376.34;5034869;28;20476;-53
2022/05/30 02:51:11;;;;;;;10.73;5.00;;;15.40;99.90;;;15.58;74.98;94376.53;5039371;28;20978;-54
2022/05/30 02:53:38;;;;;;;5.17;4.60;;;15.40;99.90;;;15.59;75.01;94379.97;5037471;28;20467;-52
2022/05/30 02:56:06;;;;;;;11.77;4.70;;;15.40;99.90;;;15.58;75.00;94389.78;5039492;28;21031;-55
2022/05/30 02:58:33;;;;;;;8.07;4.90;;;15.40;99.90;;;15.57;75.20;94403.22;5035219;28;20496;-53
2022/05/30 03:01:01;;;;;;;8.57;4.90;;;15.40;99.90;;;15.57;74.96;94405.88;5039984;28;20488;-52
2022/05/30 03:03:28;;;;;;;9.50;4.83;;;15.30;99.90;;;15.56;74.87;94406.84;5035009;28;20983;-52
2022/05/30 03:05:55;;;;;;;6.60;3.90;;;15.30;99.90;;;15.54;75.21;94408.88;5037598;28;20533;-53
2022/05/30 03:08:24;;;;;;;7.27;4.47;;;15.30;99.90;;;15.54;75.29;94416.81;5034498;28;20464;-53
2022/05/30 03:10:51;;;;;;;4.43;4.10;;;15.30;99.90;;;15.54;75.01;94420.28;5036849;28;20526;-54
2022/05/30 03:13:19;;;;;;;6.20;4.43;;;15.30;99.90;;;15.55;75.04;94421.09;5038831;28;20462;-53
2022/05/30 03:15:46;;;;;;;10.30;3.70;;;15.30;99.90;;;15.54;75.02;94422.94;5035029;28;22165;-53
2022/05/30 03:18:13;;;;;;;3.87;3.40;;;15.30;99.90;;;15.53;74.70;94436.38;5035217;28;21058;-53
2022/05/30 03:20:40;;;;;;;5.37;4.00;;;15.30;99.90;;;15.51;75.03;94431.25;5035807;28;20486;-53
2022/05/30 03:23:08;;;;;;;10.93;4.83;;;15.30;99.90;;;15.51;74.77;94438.41;5037636;28;20522;-53
2022/05/30 03:25:36;;;;;;;6.03;4.67;;;15.30;99.90;;;15.49;74.67;94443.03;5036054;28;20557;-53
2022/05/30 03:28:04;;;;;;;11.10;4.23;;;15.30;99.90;;;15.47;74.67;94447.69;5036624;28;20456;-52
2022/05/30 03:30:36;;;;;;;4.63;3.80;;;15.30;99.90;;;15.46;74.53;94456.63;5037440;28;20476;-54
2022/05/30 03:33:04;;;;;;;24.23;5.03;;;15.20;99.90;;;15.44;74.34;94453.34;5040976;28;20456;-52
2022/05/30 03:35:31;;;;;;;3.30;3.00;;;15.20;99.90;;;15.43;74.13;94460.50;5035726;28;20489;-53
2022/05/30 03:38:00;;;;;;;7.27;3.50;;;15.20;99.90;;;15.42;74.05;94464.13;5039043;28;20463;-54
2022/05/30 03:40:27;;;;;;;7.90;4.17;;;15.20;99.90;;;15.40;74.23;94477.56;5035591;28;21020;-55
2022/05/30 03:42:56;;;;;;;6.40;3.70;;;15.20;99.90;;;15.39;74.19;94477.75;5039071;28;20456;-53
2022/05/30 03:45:23;;;;;;;9.77;4.30;;;15.20;99.90;;;15.38;74.03;94484.88;5039056;28;20473;-53
2022/05/30 03:47:51;;;;;;;4.57;4.10;;;15.20;99.90;;;15.36;74.30;94492.16;5034676;28;20467;-52
2022/05/30 03:50:23;;;;;;;3.27;3.07;;;15.10;99.90;;;15.36;74.25;94486.88;5039843;28;20521;-56
2022/05/30 03:52:51;;;;;;;8.70;5.27;;;15.10;99.90;;;15.36;74.12;94486.88;5034346;28;20478;-54
2022/05/30 03:55:21;;;;;;;9.50;6.33;;;15.10;99.90;;;15.36;74.41;94492.16;5038932;28;20553;-53
2022/05/30 03:57:48;;;;;;;8.10;6.20;;;15.10;99.90;;;15.39;74.55;94491.00;5038400;28;20973;-55
2022/05/30 04:00:19;;;;;;;7.57;6.50;;;15.20;99.90;;;15.41;74.87;94489.81;5039837;28;20500;-53
2022/05/30 04:02:48;;;;;;;8.70;7.20;;;15.20;99.90;;;15.44;75.09;94488.63;5038999;28;20971;-54
2022/05/30 04:05:16;;;;;;;13.50;8.27;;;15.20;99.90;;;15.50;75.31;94493.22;5038932;28;20494;-53
2022/05/30 04:07:43;;;;;;;9.70;8.43;;;15.30;99.90;;;15.58;75.21;94500.25;5034411;28;20469;-54
2022/05/30 04:10:10;;;;;;;9.67;7.90;;;15.30;99.90;;;15.66;75.19;94507.31;5036454;28;20921;-53
2022/05/30 04:12:38;;;;;;;11.20;7.67;;;15.40;99.90;;;15.72;74.96;94507.44;5035177;28;20463;-54
2022/05/30 04:15:08;;;;;;;11.23;7.63;;;15.50;99.90;;;15.76;75.04;94511.38;5036203;28;20511;-53
2022/05/30 04:17:37;;;;;;;10.60;8.50;;;15.50;99.90;;;15.81;74.92;94510.03;5037179;28;20995;-53
2022/05/30 04:20:06;;;;;;;9.93;8.77;;;15.50;99.90;;;15.84;74.66;94517.63;5037878;28;21024;-54
2022/05/30 04:22:33;;;;;;;15.27;8.17;;;15.60;99.90;;;15.87;74.81;94507.47;5037449;28;20452;-52
2022/05/30 04:25:00;;;;;;;11.40;7.97;;;15.60;99.90;;;15.88;75.16;94508.28;5039796;28;20862;-54
2022/05/30 04:27:28;;;;;;;11.90;7.93;;;15.60;99.90;;;15.94;74.48;94515.53;5034269;28;20464;-54
2022/05/30 04:29:55;;;;;;;9.47;7.43;;;15.70;99.90;;;15.98;74.74;94506.22;5032241;28;20500;-53
2022/05/30 04:32:23;;;;;;;12.73;7.50;;;15.70;99.90;;;16.03;74.80;94509.13;5032663;28;20461;-53
2022/05/30 04:34:52;;;;;;;10.13;6.33;;;15.80;99.90;;;16.07;74.50;94510.41;5034034;28;20583;-53
2022/05/30 04:37:19;;;;;;;6.80;6.20;;;15.80;99.90;;;16.12;74.46;94518.66;5035063;28;20984;-54
2022/05/30 04:39:46;;;;;;;12.30;8.33;;;15.90;99.90;;;16.18;74.50;94510.97;5033124;28;20495;-52
2022/05/30 04:42:14;;;;;;;8.63;6.90;;;15.90;99.90;;;16.22;74.76;94514.91;5034911;28;20530;-55
2022/05/30 04:44:41;;;;;;;13.63;8.10;;;15.90;99.90;;;16.27;74.47;94518.66;5035052;28;20476;-51
2022/05/30 04:47:11;;;;;;;9.83;6.53;;;16.00;99.90;;;16.37;75.05;94521.03;5036394;28;20490;-53
2022/05/30 04:49:38;;;;;;;12.10;6.60;;;16.10;99.90;;;16.49;74.98;94527.50;5033577;28;20992;-53
2022/05/30 04:52:08;;;;;;;11.40;6.10;;;16.20;99.90;;;16.63;74.65;94523.19;5032189;28;20456;-55
2022/05/30 04:54:35;;;;;;;27.10;7.70;;;16.30;99.90;;;16.75;74.92;94523.53;5040910;28;20554;-52
2022/05/30 04:57:02;;;;;;;11.03;6.77;;;16.50;99.90;;;16.90;74.18;94525.38;5039392;28;20456;-54
2022/05/30 04:59:30;;;;;;;9.20;6.90;;;16.60;99.90;;;17.01;73.90;94527.56;5038872;28;21024;-54
2022/05/30 05:01:57;;;;;;;11.50;7.40;;;16.70;99.90;;;17.10;73.61;94536.22;5039470;28;20447;-54
2022/05/30 05:04:24;;;;;;;11.73;7.77;;;16.80;99.90;;;17.13;73.50;94528.69;5037972;28;21113;-53
2022/05/30 05:06:51;;;;;;;8.90;8.00;;;16.90;99.90;;;17.18;73.55;94528.09;5039247;28;20838;-52
2022/05/30 05:09:41;;;;;;;9.73;7.60;;;16.90;99.90;;;17.25;73.12;94546.81;5039289;28;20476;-55
2022/05/30 05:12:09;;;;;;;11.20;8.03;;;16.90;99.90;;;17.30;72.96;94537.22;5039643;28;20562;-53
2022/05/30 05:14:36;;;;;;;13.40;8.80;;;17.00;99.90;;;17.37;72.42;94534.66;5041392;28;20482;-54
2022/05/30 05:17:05;;;;;;;10.93;8.40;;;17.10;99.90;;;17.46;72.03;94544.16;5041824;28;20489;-54
2022/05/30 05:19:33;;;;;;;9.53;8.27;;;17.10;99.90;;;17.58;72.03;94546.28;5040215;28;20498;-52
2022/05/30 05:22:00;;;;;;;10.27;9.17;;;17.30;99.90;;;17.72;71.48;94545.38;5038354;28;20462;-53
2022/05/30 05:24:27;;;;;;;30.37;8.77;;;17.40;99.90;;;17.87;71.82;94546.13;5042604;28;20473;-53
2022/05/30 05:26:56;;;;;;;12.23;7.90;;;17.50;99.90;;;18.05;71.25;94547.53;5042875;28;20464;-53
2022/05/30 05:29:23;;;;;;;10.40;8.50;;;17.60;99.90;;;18.22;70.79;94545.38;5046120;28;21016;-53
2022/05/30 05:31:51;;;;;;;13.30;9.70;;;17.80;99.90;;;18.42;70.97;94556.16;5044955;28;20968;-52
2022/05/30 05:34:18;;;;;;;14.33;9.23;;;18.00;99.90;;;18.59;70.63;94552.16;5045058;28;20498;-54
2022/05/30 05:36:48;;;;;;;18.10;9.07;;;18.20;99.90;;;18.78;70.18;94555.09;5038245;28;20964;-53
2022/05/30 05:39:15;;;;;;;14.30;8.50;;;18.40;99.90;;;18.96;69.09;94549.25;5042511;28;20498;-54
2022/05/30 05:41:43;;;;;;;13.10;9.73;;;18.50;99.90;;;19.14;68.66;94556.69;5044371;28;20986;-53
2022/05/30 05:44:12;;;;;;;18.63;10.13;;;18.70;99.90;;;19.33;69.04;94553.28;5047186;28;20452;-53
2022/05/30 05:46:40;;;;;;;10.53;7.60;;;18.90;99.90;;;19.52;68.26;94551.66;5044801;28;20449;-55
2022/05/30 05:49:09;;;;;;;12.83;9.03;;;19.10;99.90;;;19.69;67.84;94562.75;5046136;28;20462;-55
2022/05/30 05:51:37;;;;;;;14.13;10.73;;;19.20;99.90;;;19.89;67.85;94564.63;5047071;28;20892;-53
2022/05/30 05:54:05;;;;;;;19.00;8.97;;;19.40;99.90;;;20.08;67.61;94556.81;5043817;28;20535;-56
2022/05/30 05:56:33;;;;;;;12.30;8.30;;;19.60;99.90;;;20.23;67.05;94568.09;5042463;28;20456;-53
2022/05/30 05:59:00;;;;;;;12.20;8.53;;;19.70;99.90;;;20.37;66.16;94566.25;5045572;28;20455;-53
2022/05/30 06:01:31;;;;;;;10.83;8.93;;;19.90;99.70;;;20.47;66.28;94563.16;5044394;28;20540;-54
2022/05/30 06:04:00;;;;;;;10.17;8.07;;;20.00;99.40;;;20.61;66.29;94570.09;5045542;28;21078;-55
2022/05/30 06:06:27;;;;;;;10.17;9.13;;;20.10;99.40;;;20.74;65.77;94572.78;5049710;28;20447;-51
2022/05/30 06:08:56;;;;;;;11.97;9.00;;;20.30;99.10;;;20.90;65.55;94571.50;5044967;28;20868;-54
2022/05/30 06:11:24;;;;;;;12.23;8.77;;;20.40;99.50;;;21.07;65.19;94571.84;5043001;28;21027;-55
2022/05/30 06:13:51;;;;;;;11.67;9.33;;;20.60;98.80;;;21.23;64.21;94569.72;5044246;28;20487;-53
2022/05/30 06:16:22;;;;;;;10.07;8.63;;;20.70;98.00;;;21.36;64.49;94572.31;5045383;28;20471;-52
2022/05/30 06:18:51;;;;;;;14.33;9.30;;;20.90;98.30;;;21.49;64.29;94577.63;5042431;28;21288;-53
2022/05/30 06:21:18;;;;;;;19.63;8.97;;;21.00;98.20;;;21.63;63.57;94582.91;5044974;28;20506;-55
2022/05/30 06:23:46;;;;;;;14.60;8.70;;;21.10;97.60;;;21.73;63.36;94577.06;5045305;28;20456;-55
2022/05/30 06:26:14;;;;;;;12.03;9.20;;;21.20;97.40;;;21.84;62.37;94590.59;5046667;28;20559;-53
2022/05/30 06:28:41;;;;;;;11.60;9.50;;;21.40;96.90;;;21.93;62.07;94587.63;5042008;28;20765;-53
2022/05/30 06:31:09;;;;;;;23.63;9.93;;;21.40;96.40;;;21.98;63.06;94590.47;5046029;28;20475;-52
2022/05/30 06:33:36;;;;;;;11.20;9.30;;;21.50;96.80;;;22.03;62.49;94586.13;5042695;28;20471;-53
2022/05/30 06:36:07;;;;;;;16.53;9.00;;;21.60;96.70;;;22.12;61.85;94586.66;5043229;28;20467;-53
2022/05/30 06:38:35;;;;;;;18.87;8.73;;;21.70;96.10;;;22.25;62.30;94590.28;5041176;28;20441;-54
2022/05/30 06:41:14;;;;;;;14.30;9.57;;;21.70;96.50;;;22.38;60.86;94591.00;5044069;28;20499;-53
2022/05/30 06:43:41;;;;;;;13.37;9.70;;;21.90;95.90;;;22.51;61.48;94590.06;5034065;28;20863;-53
2022/05/30 06:46:08;;;;;;;16.27;9.97;;;22.00;96.10;;;22.66;61.21;94602.28;5043745;28;20479;-54
2022/05/30 06:48:36;;;;;;;18.63;9.13;;;22.20;95.90;;;22.79;61.01;94602.16;5044347;28;20463;-54
2022/05/30 06:51:05;;;;;;;11.93;9.00;;;22.30;95.60;;;22.92;61.21;94593.94;5043185;28;20476;-53
2022/05/30 06:53:33;;;;;;;13.07;9.23;;;22.40;95.30;;;23.07;61.12;94595.47;5046325;28;20455;-53
2022/05/30 06:56:00;;;;;;;18.53;9.20;;;22.60;95.60;;;23.24;61.01;94599.19;5042965;28;20472;-52
2022/05/30 06:58:27;;;;;;;10.00;8.63;;;22.70;95.20;;;23.39;60.71;94590.75;5041234;28;20455;-54
2022/05/30 07:01:00;;;;;;;15.97;8.70;;;22.90;95.00;;;23.54;59.83;94592.22;5043845;28;20502;-54
2022/05/30 07:03:27;;;;;;;16.73;9.33;;;23.00;94.90;;;23.70;59.54;94601.47;5043750;28;20455;-53
2022/05/30 07:05:54;;;;;;;11.97;7.87;;;23.10;94.50;;;23.86;58.95;94603.56;5042834;28;21005;-55
2022/05/30 07:08:23;;;;;;;14.30;9.00;;;23.30;93.50;;;23.98;57.92;94599.03;5039625;28;20513;-52
2022/05/30 07:10:51;;;;;;;9.20;7.90;;;23.50;93.10;;;24.10;58.50;94598.22;5042810;28;20550;-55
2022/05/30 07:13:18;;;;;;;11.20;8.40;;;23.60;93.00;;;24.27;57.67;94601.88;5045091;28;20630;-53
2022/05/30 07:15:48;;;;;;;9.43;7.60;;;23.70;92.80;;;24.41;55.62;94596.28;5041945;28;20476;-55
2022/05/30 07:18:16;;;;;;;12.33;9.03;;;23.90;91.00;;;24.49;56.94;94598.63;5044738;28;20774;-55
2022/05/30 07:20:44;;;;;;;11.97;8.90;;;24.00;92.00;;;24.58;56.52;94591.06;5043416;28;20569;-53
2022/05/30 07:23:12;;;;;;;8.73;7.47;;;24.10;91.90;;;24.65;56.17;94597.97;5043171;28;20464;-54
2022/05/30 07:25:41;;;;;;;10.97;8.40;;;24.10;91.60;;;24.78;54.73;94596.09;5040465;28;20514;-55
2022/05/30 07:28:12;;;;;;;12.83;10.27;;;24.30;90.40;;;24.88;55.43;94604.38;5044963;28;20451;-55
2022/05/30 07:30:40;;;;;;;13.87;8.70;;;24.30;90.30;;;25.00;55.80;94605.19;5041923;28;20463;-52
2022/05/30 07:33:08;;;;;;;9.57;7.90;;;24.50;90.50;;;25.07;54.81;94602.38;5038447;28;20447;-57
2022/05/30 07:35:35;;;;;;;12.50;9.50;;;24.50;89.40;;;25.05;55.20;94604.44;5042495;28;20459;-55
2022/05/30 07:38:02;;;;;;;14.23;8.50;;;24.50;89.90;;;25.12;54.72;94605.16;5044382;28;20960;-55
2022/05/30 07:40:30;;;;;;;17.47;8.23;;;24.60;90.00;;;25.25;54.31;94606.75;5042978;28;20496;-55
2022/05/30 07:42:58;;;;;;;9.47;8.43;;;24.70;89.00;;;25.38;54.40;94608.41;5045643;28;20446;-56
2022/05/30 07:45:25;;;;;;;16.27;10.73;;;24.80;89.30;;;25.53;54.24;94615.94;5041299;28;20467;-53
2022/05/30 07:47:53;;;;;;;13.07;8.07;;;24.90;88.70;;;25.62;54.07;94605.63;5042007;28;20459;-55
2022/05/30 07:50:21;;;;;;;14.00;8.70;;;25.00;88.00;;;25.71;53.19;94613.06;5041883;28;20581;-55
2022/05/30 07:52:48;;;;;;;11.57;8.27;;;25.10;86.00;;;25.84;53.11;94603.91;5042834;28;20944;-53
2022/05/30 07:55:15;;;;;;;9.37;7.93;;;25.30;86.40;;;25.96;53.26;94611.91;5044119;28;20475;-56
2022/05/30 07:57:51;;;;;;;16.83;9.03;;;25.40;86.70;;;26.10;52.88;94607.88;5043536;28;20525;-54
2022/05/30 08:00:23;;;;;;;10.43;7.83;;;25.50;86.20;;;26.31;52.47;94619.00;5045324;28;20924;-55
2022/05/30 08:02:50;;;;;;;15.17;7.83;;;25.70;85.60;;;26.43;51.73;94617.06;5040722;28;20447;-56
2022/05/30 08:05:18;;;;;;;13.20;8.33;;;25.80;83.30;;;26.55;51.62;94624.22;5043754;28;20467;-55
2022/05/30 08:07:45;;;;;;;10.13;8.57;;;26.00;83.00;;;26.67;51.69;94614.19;5044496;28;20962;-55
2022/05/30 08:10:13;;;;;;;11.53;8.43;;;26.10;82.90;;;26.81;50.08;94614.66;5044291;28;20479;-54
2022/05/30 08:12:40;;;;;;;11.63;8.63;;;26.20;79.40;;;26.95;50.60;94618.66;5042267;28;20687;-56
2022/05/30 08:15:09;;;;;;;19.80;8.20;;;26.40;80.10;;;27.13;50.17;94614.84;5045131;28;20482;-54
2022/05/30 08:17:37;;;;;;;12.30;6.73;;;26.50;79.80;;;27.33;49.53;94621.63;5044681;28;20456;-54
2022/05/30 08:20:06;;;;;;;13.00;7.50;;;26.70;78.80;;;27.50;49.13;94625.06;5044140;28;20498;-55
2022/05/30 08:22:34;;;;;;;11.57;8.10;;;26.90;77.20;;;27.65;49.03;94615.50;5044813;28;20673;-55
2022/05/30 08:25:03;;;;;;;12.43;7.70;;;27.10;75.90;;;27.79;48.79;94616.72;5044878;28;20901;-53
2022/05/30 08:27:31;;;;;;;15.10;7.60;;;27.20;76.30;;;27.93;48.81;94627.16;5042355;28;20464;-55
2022/05/30 08:29:58;;;;;;;9.60;7.40;;;27.40;76.10;;;28.06;48.18;94621.38;5044990;28;20864;-56
2022/05/30 08:32:31;;;;;;;13.83;7.13;;;27.50;75.10;;;28.10;47.75;94621.66;5043030;28;20455;-55
2022/05/30 08:35:02;;;;;;;18.10;8.00;;;27.50;73.00;;;28.09;47.22;94623.56;5043692;28;20471;-55
2022/05/30 08:37:31;;;;;;;9.20;8.20;;;27.60;72.40;;;28.15;47.77;94619.84;5040615;28;20435;-54
2022/05/30 08:42:44;;;;;;;6.77;5.93;;;27.60;72.50;;;28.44;47.55;94622.22;5041667;28;20443;-55
2022/05/30 08:45:14;;;;;;;10.90;7.40;;;27.80;71.40;;;28.60;46.66;94615.09;5043016;28;20476;-53
2022/05/30 08:47:50;;;;;;;10.80;7.40;;;28.00;69.90;;;28.74;45.18;94615.47;5045203;28;20546;-55
2022/05/30 08:50:43;;;;;;;10.60;6.93;;;28.10;66.70;;;28.84;45.37;94620.13;5040525;28;20487;-54
2022/05/30 08:53:49;;;;;;;8.57;7.37;;;28.30;67.90;;;28.92;45.04;94615.06;5037342;28;21693;-56
2022/05/30 08:56:23;;;;;;;13.13;7.33;;;28.30;67.90;;;29.07;45.51;94613.50;5021074;28;21018;-55
2022/05/30 08:59:10;;;;;;;14.70;6.93;;;28.50;67.20;;;29.03;45.00;94612.38;5043699;28;20443;-53
2022/05/30 09:01:39;;;;;;;7.03;6.17;;;28.50;66.00;;;29.11;44.81;94625.41;5041519;28;20808;-55
2022/05/30 09:04:10;;;;;;;8.20;6.03;;;28.50;64.50;;;29.21;44.68;94616.59;5040204;28;20474;-53
2022/05/30 09:06:43;;;;;;;11.53;7.30;;;28.60;64.60;;;29.32;44.19;94627.19;5040556;28;20452;-55
2022/05/30 09:09:17;;;;;;;11.53;7.00;;;28.70;64.10;;;29.39;43.86;94628.84;5043191;28;20523;-56
2022/05/30 09:11:47;;;;;;;9.03;5.83;;;28.80;62.80;;;29.46;43.65;94626.72;5041058;28;20439;-55
2022/05/30 09:14:16;;;;;;;11.67;6.00;;;28.90;61.50;;;29.56;43.22;94629.47;5038003;28;20546;-53
2022/05/30 09:16:48;;;;;;;14.87;6.40;;;29.00;61.50;;;29.64;43.65;94631.66;5045021;28;20463;-55
2022/05/30 09:19:16;;;;;;;22.63;5.70;;;29.00;61.50;;;29.60;43.48;94641.41;5041778;28;20447;-53
2022/05/30 09:21:45;;;;;;;7.90;4.90;;;29.10;60.10;;;29.67;42.94;94631.13;5044746;28;20874;-54
2022/05/30 09:24:14;;;;;;;12.13;6.10;;;29.10;59.50;;;29.73;42.01;94637.41;5042085;28;20633;-53
2022/05/30 09:26:41;;;;;;;7.30;5.77;;;29.10;58.70;;;29.81;42.18;94644.22;5044607;28;20532;-56
2022/05/30 09:29:13;;;;;;;10.40;6.33;;;29.20;59.00;;;29.82;42.47;94640.41;5044158;28;20540;-54
2022/05/30 09:31:51;;;;;;;11.50;6.00;;;29.20;59.00;;;29.77;41.85;94637.69;5043369;28;20686;-55
2022/05/30 09:34:41;;;;;;;17.23;6.20;;;29.20;58.00;;;29.74;41.13;94638.22;5041975;28;20475;-55
2022/05/30 09:37:10;;;;;;;6.70;5.33;;;29.20;56.00;;;29.66;42.50;94640.34;5043170;28;20200;-56
2022/05/30 09:39:44;;;;;;;13.00;5.43;;;29.10;57.00;;;29.65;42.24;94635.19;5044008;28;20327;-53
2022/05/30 09:42:30;;;;;;;8.30;5.70;;;29.10;58.40;;;29.73;41.40;94636.56;5042102;28;20219;-53
2022/05/30 09:45:07;;;;;;;7.07;5.23;;;29.10;57.50;;;29.78;41.63;94629.28;5040182;28;20709;-54
2022/05/30 09:47:35;;;;;;;7.77;5.57;;;29.20;57.40;;;29.86;42.13;94628.78;5040668;28;20275;-54
2022/05/30 09:50:14;;;;;;;8.13;6.10;;;29.30;58.20;;;29.76;41.83;94631.44;5040687;28;20264;-54
2022/05/30 09:52:43;;;;;;;12.33;5.90;;;29.20;56.90;;;29.70;41.97;94627.09;5044763;28;20641;-54
2022/05/30 09:55:27;;;;;;;11.63;6.73;;;29.20;57.40;;;29.58;40.87;94635.44;5041844;28;20235;-55
2022/05/30 09:57:55;;;;;;;7.57;5.73;;;29.10;56.00;;;29.47;43.05;94634.59;5040212;28;20443;-55
2022/05/30 10:00:35;;;;;;;8.53;6.20;;;29.00;58.10;;;29.39;43.07;94628.84;5040521;28;20518;-54
2022/05/30 10:03:05;;;;;;;12.93;5.40;;;28.90;58.30;;;29.37;42.27;94629.09;5036332;28;20447;-54
2022/05/30 10:05:33;;;;;;;7.87;5.90;;;28.80;57.90;;;29.40;43.35;94635.91;5040435;28;20475;-54
2022/05/30 10:08:05;;;;;;;8.10;5.67;;;28.90;59.00;;;29.48;43.00;94633.50;5042352;28;20534;-54
2022/05/30 10:10:33;;;;;;;9.07;5.70;;;28.90;58.60;;;29.61;42.89;94628.69;5043191;28;20243;-54
2022/05/30 10:13:02;;;;;;;6.93;5.93;;;29.00;59.20;;;29.74;43.25;94627.34;5043088;28;20458;-54
2022/05/30 10:15:31;;;;;;;8.07;5.40;;;29.10;59.00;;;29.82;42.46;94635.00;5046131;28;20232;-55
2022/05/30 10:18:17;;;;;;;15.07;5.80;;;29.20;58.20;;;29.83;42.58;94625.78;5044652;28;20658;-53
2022/05/30 10:20:47;;;;;;;8.33;5.67;;;29.30;58.20;;;29.86;40.77;94626.06;5043518;28;20424;-53
2022/05/30 10:29:12;;;;;;;8.13;6.20;;;29.20;57.00;;;29.80;41.87;94626.31;5046036;28;20281;-55
2022/05/30 10:31:46;;;;;;;6.37;5.63;;;29.30;56.80;;;29.80;41.96;94629.03;5045772;28;20553;-53
2022/05/30 10:34:43;;;;;;;6.60;5.30;;;29.20;57.20;;;29.81;41.67;94628.78;5044045;28;20208;-55
2022/05/30 10:37:22;;;;;;;6.20;5.57;;;29.30;56.20;;;29.85;41.66;94629.88;5039007;28;20197;-52
2022/05/30 10:40:15;;;;;;;10.37;5.57;;;29.30;56.90;;;29.79;41.28;94630.06;5045713;28;20232;-54
2022/05/30 10:42:47;;;;;;;14.73;6.23;;;29.30;56.00;;;29.71;42.33;94628.69;5043045;28;20632;-53
2022/05/30 10:45:18;;;;;;;6.50;5.30;;;29.20;56.70;;;29.65;41.42;94625.19;5043724;28;20621;-55